createdAt,value
2023-03-20T00:01:33.831Z,43.17
2023-03-20T00:06:32.300Z,42.08
2023-03-20T00:11:29.729Z,41.13
2023-03-20T00:16:24.865Z,38.17
2023-03-20T00:21:21.428Z,40.08
2023-03-20T00:26:17.062Z,40.88
2023-03-20T00:31:25.344Z,41.25
2023-03-20T00:36:18.686Z,41.00
2023-03-20T00:41:33.966Z,37.22
2023-03-20T00:46:27.543Z,37.17
2023-03-20T00:51:20.792Z,42.83
2023-03-20T00:56:31.384Z,42.78
2023-03-20T01:01:24.646Z,43.30
2023-03-20T01:06:19.091Z,42.63
2023-03-20T01:11:14.724Z,40.83
2023-03-20T01:16:42.094Z,42.92
2023-03-20T01:21:36.142Z,50.20
2023-03-20T01:26:40.435Z,46.25
2023-03-20T01:31:33.151Z,43.05
2023-03-20T01:36:27.085Z,41.40
2023-03-20T01:41:21.189Z,44.95
2023-03-20T01:46:32.149Z,43.97
2023-03-20T01:51:38.249Z,47.50
2023-03-20T01:56:55.525Z,44.70
2023-03-20T02:01:48.997Z,41.55
2023-03-20T02:06:45.589Z,48.88
2023-03-20T02:11:43.301Z,46.58
2023-03-20T02:16:36.708Z,66.40
2023-03-20T02:22:06.316Z,57.83
2023-03-20T02:27:12.084Z,55.03
2023-03-20T02:32:32.245Z,53.75
2023-03-20T02:37:39.566Z,54.10
2023-03-20T02:42:46.545Z,66.13
2023-03-20T02:47:47.570Z,57.00
2023-03-20T02:52:51.528Z,55.47
2023-03-20T02:57:51.913Z,54.83
2023-03-20T03:03:03.037Z,50.33
2023-03-20T03:07:58.380Z,53.90
2023-03-20T03:12:52.664Z,50.33
2023-03-20T03:17:48.260Z,52.53
2023-03-20T03:22:41.206Z,48.83
2023-03-20T03:27:41.598Z,46.97
2023-03-20T03:32:38.067Z,51.13
2023-03-20T03:37:54.281Z,48.28
2023-03-20T03:42:53.688Z,45.95
2023-03-20T03:53:03.401Z,47.28
2023-03-20T03:58:02.888Z,44.90
2023-03-20T04:07:54.769Z,41.63
2023-03-20T04:12:48.821Z,42.97
2023-03-20T04:17:42.249Z,44.22
2023-03-20T04:22:36.357Z,45.65
2023-03-20T04:27:33.135Z,40.63
2023-03-20T04:32:26.606Z,42.10
2023-03-20T04:37:36.669Z,42.03
2023-03-20T04:42:32.227Z,46.45
2023-03-20T04:47:29.075Z,43.92
2023-03-20T04:52:22.239Z,41.67
2023-03-20T04:57:15.961Z,44.08
2023-03-20T05:02:09.926Z,44.33
2023-03-20T05:07:03.048Z,41.10
2023-03-20T05:12:07.239Z,33.80
2023-03-20T05:17:25.224Z,32.13
2023-03-20T05:22:41.777Z,28.88
2023-03-20T05:27:46.464Z,31.02
2023-03-20T05:32:57.236Z,30.17
2023-03-20T05:37:52.858Z,35.88
2023-03-20T05:42:57.110Z,33.90
2023-03-20T05:48:14.644Z,33.45
2023-03-20T05:53:08.129Z,31.23
2023-03-20T05:58:23.021Z,32.38
2023-03-20T06:03:52.095Z,33.20
2023-03-20T06:09:05.662Z,33.28
2023-03-20T06:14:00.650Z,33.60
2023-03-20T06:19:02.605Z,41.97
2023-03-20T06:23:56.057Z,54.08
2023-03-20T06:28:49.832Z,39.95
2023-03-20T06:33:44.908Z,40.05
2023-03-20T06:38:38.344Z,42.78
2023-03-20T06:43:37.896Z,47.38
2023-03-20T06:48:32.081Z,40.03
2023-03-20T06:53:27.532Z,40.45
2023-03-20T06:58:30.726Z,41.53
2023-03-20T07:03:24.143Z,40.40
2023-03-20T07:08:18.868Z,46.40
2023-03-20T07:13:22.320Z,45.60
2023-03-20T07:18:16.568Z,75.47
2023-03-20T07:23:10.158Z,58.47
2023-03-20T07:28:03.306Z,78.55
2023-03-20T07:32:58.973Z,47.20
2023-03-20T07:37:58.058Z,45.38
2023-03-20T07:42:53.510Z,47.75
2023-03-20T07:48:04.327Z,33.33
2023-03-20T07:52:59.454Z,29.05
2023-03-20T07:57:52.835Z,26.50
2023-03-20T08:02:46.447Z,27.33
2023-03-20T08:07:39.848Z,29.02
2023-03-20T08:12:34.404Z,29.92
2023-03-20T08:17:28.794Z,25.27
2023-03-20T08:22:22.562Z,24.58
2023-03-20T08:27:15.794Z,23.90
2023-03-20T08:32:08.902Z,25.02
2023-03-20T08:37:05.593Z,29.48
2023-03-20T08:42:00.967Z,30.40
2023-03-20T08:46:55.159Z,35.45
2023-03-20T08:51:48.874Z,34.28
2023-03-20T08:56:41.344Z,42.58
2023-03-20T09:01:48.262Z,42.72
2023-03-20T09:06:42.324Z,38.03
2023-03-20T09:11:36.485Z,43.42
2023-03-20T09:16:30.012Z,42.92
2023-03-20T09:21:23.319Z,38.58
2023-03-20T09:26:17.735Z,41.65
2023-03-20T09:31:12.402Z,37.20
2023-03-20T09:36:08.842Z,29.73
2023-03-20T09:41:02.419Z,40.95
2023-03-20T09:46:13.830Z,39.22
2023-03-20T09:51:29.262Z,33.60
2023-03-20T09:56:25.484Z,30.77
2023-03-20T10:01:19.856Z,34.88
2023-03-20T10:06:18.472Z,26.63
2023-03-20T10:11:32.654Z,28.60
2023-03-20T10:17:04.499Z,25.42
2023-03-20T10:22:31.462Z,26.58
2023-03-20T10:27:35.171Z,27.17
2023-03-20T10:32:39.489Z,26.75
2023-03-20T10:37:47.074Z,26.58
2023-03-20T10:42:42.407Z,26.33
2023-03-20T10:47:38.484Z,25.55
2023-03-20T10:52:36.992Z,28.30
2023-03-20T10:57:32.870Z,28.47
2023-03-20T11:02:30.318Z,26.30
2023-03-20T11:07:36.740Z,28.88
2023-03-20T11:12:33.781Z,30.50
2023-03-20T11:17:30.143Z,30.48
2023-03-20T11:22:26.235Z,31.67
2023-03-20T11:27:50.822Z,31.13
2023-03-20T11:33:03.913Z,32.70
2023-03-20T11:38:10.387Z,35.22
2023-03-20T11:43:03.018Z,30.02
2023-03-20T11:47:58.132Z,28.73
2023-03-20T11:52:50.537Z,28.55
2023-03-20T11:57:42.836Z,27.30
2023-03-20T12:02:36.983Z,25.83
2023-03-20T12:07:38.107Z,24.98
2023-03-20T12:12:41.867Z,27.48
2023-03-20T12:17:46.924Z,27.85
2023-03-20T12:22:58.534Z,27.13
2023-03-20T12:28:29.259Z,29.10
2023-03-20T12:33:34.418Z,33.35
2023-03-20T12:38:35.015Z,29.20
2023-03-20T12:43:31.706Z,29.63
2023-03-20T12:48:48.421Z,28.27
2023-03-20T12:53:46.515Z,30.80
2023-03-20T12:58:43.336Z,30.57
2023-03-20T13:04:12.947Z,34.53
2023-03-20T13:09:14.316Z,30.80
2023-03-20T13:14:35.726Z,32.00
2023-03-20T13:19:37.682Z,37.15
2023-03-20T13:24:41.240Z,34.03
2023-03-20T13:29:58.841Z,33.58
2023-03-20T13:35:09.830Z,33.28
2023-03-20T13:40:30.893Z,34.58
2023-03-20T13:45:42.047Z,34.95
2023-03-20T13:50:41.520Z,33.63
2023-03-20T13:56:31.763Z,30.08
2023-03-20T14:01:35.242Z,29.38
2023-03-20T14:06:28.446Z,28.17
2023-03-20T14:11:32.556Z,32.38
2023-03-20T14:16:28.811Z,27.92
2023-03-20T14:21:24.369Z,25.17
2023-03-20T14:26:24.458Z,26.73
2023-03-20T14:31:38.602Z,23.52
2023-03-20T14:37:04.709Z,25.20
2023-03-20T14:42:18.621Z,26.48
2023-03-20T14:47:29.629Z,29.63
2023-03-20T14:53:07.306Z,29.02
2023-03-20T14:58:05.533Z,25.23
2023-03-20T15:03:10.792Z,28.00
2023-03-20T15:08:09.127Z,31.90
2023-03-20T15:13:04.863Z,102.63
2023-03-20T15:18:05.957Z,34.88
2023-03-20T15:23:03.728Z,28.20
2023-03-20T15:27:57.218Z,24.65
2023-03-20T15:32:50.914Z,27.65
2023-03-20T15:37:45.320Z,23.13
2023-03-20T15:42:39.051Z,23.52
2023-03-20T15:47:33.161Z,25.88
2023-03-20T15:52:33.680Z,35.25
2023-03-20T15:57:33.636Z,27.00
2023-03-20T16:02:31.589Z,23.90
2023-03-20T16:07:45.395Z,25.80
2023-03-20T16:12:38.416Z,25.77
2023-03-20T16:17:31.387Z,24.58
2023-03-20T16:22:48.027Z,21.33
2023-03-20T16:27:41.304Z,21.92
2023-03-20T16:32:42.759Z,21.15
2023-03-20T16:37:44.651Z,21.65
2023-03-20T16:42:38.662Z,20.48
2023-03-20T16:47:36.726Z,25.30
2023-03-20T16:52:31.556Z,23.88
2023-03-20T16:57:26.102Z,25.38
2023-03-20T17:02:40.923Z,26.05
2023-03-20T17:07:34.095Z,21.50
2023-03-20T17:12:31.400Z,29.73
2023-03-20T17:17:25.627Z,28.10
2023-03-20T17:22:22.135Z,25.60
2023-03-20T17:27:16.097Z,23.83
2023-03-20T17:32:17.674Z,23.35
2023-03-20T17:37:30.508Z,24.90
2023-03-20T17:42:31.194Z,29.08
2023-03-20T17:47:26.170Z,33.38
2023-03-20T17:52:22.076Z,39.55
2023-03-20T17:57:34.516Z,38.78
2023-03-20T18:02:27.968Z,42.50
2023-03-20T18:07:21.252Z,39.35
2023-03-20T18:12:17.183Z,47.13
2023-03-20T18:17:13.671Z,38.92
2023-03-20T18:22:07.126Z,52.78
2023-03-20T18:27:00.438Z,53.70
2023-03-20T18:31:54.111Z,45.58
2023-03-20T18:36:46.592Z,43.67
2023-03-20T18:41:40.229Z,53.30
2023-03-20T18:46:34.259Z,40.95
2023-03-20T18:51:27.748Z,42.10
2023-03-20T18:56:24.001Z,38.83
2023-03-20T19:01:18.094Z,42.72
2023-03-20T19:06:18.097Z,40.58
2023-03-20T19:11:15.645Z,46.30
2023-03-20T19:16:18.871Z,52.63
2023-03-20T19:21:11.927Z,57.25
2023-03-20T19:26:05.953Z,51.00
2023-03-20T19:30:59.114Z,64.40
2023-03-20T19:36:02.730Z,59.97
2023-03-20T19:41:05.487Z,67.20
2023-03-20T19:45:59.580Z,59.60
2023-03-20T19:50:58.041Z,47.15
2023-03-20T19:55:51.503Z,47.00
2023-03-20T20:00:57.240Z,47.58
2023-03-20T20:05:52.014Z,43.80
2023-03-20T20:10:51.014Z,43.10
2023-03-20T20:15:45.653Z,46.10
2023-03-20T20:21:07.629Z,43.53
2023-03-20T20:25:53.134Z,44.40
2023-03-20T20:30:55.591Z,43.40
2023-03-20T20:36:20.453Z,52.00
2023-03-20T20:41:02.484Z,59.05
2023-03-20T20:45:56.228Z,52.60
2023-03-20T20:50:50.951Z,45.58
2023-03-20T20:55:44.147Z,43.85
2023-03-20T21:00:50.606Z,44.33
2023-03-20T21:05:44.657Z,48.08
2023-03-20T21:10:38.558Z,51.50
2023-03-20T21:15:31.685Z,61.45
2023-03-20T21:20:25.799Z,56.15
2023-03-20T21:25:36.297Z,60.15
2023-03-20T21:30:33.533Z,50.35
2023-03-20T21:35:27.266Z,40.88
2023-03-20T21:40:21.626Z,40.63
2023-03-20T21:50:57.155Z,46.00
2023-03-20T21:56:39.404Z,42.03
2023-03-20T22:12:02.392Z,46.08
2023-03-20T22:17:38.676Z,36.65
2023-03-20T22:23:00.417Z,37.38
2023-03-20T22:43:59.708Z,36.90
2023-03-20T22:48:16.471Z,37.03
2023-03-20T22:53:12.005Z,35.20
2023-03-20T22:58:08.491Z,32.78
2023-03-20T23:03:15.619Z,29.58
2023-03-20T23:08:15.268Z,33.65
2023-03-20T23:13:10.157Z,32.85
2023-03-20T23:18:04.645Z,32.10
2023-03-20T23:22:59.422Z,33.97
2023-03-20T23:27:57.933Z,30.80
2023-03-20T23:32:51.199Z,33.45
2023-03-20T23:37:46.206Z,37.70
2023-03-20T23:42:43.085Z,36.33
2023-03-20T23:47:44.469Z,33.22
2023-03-20T23:52:40.759Z,31.90
2023-03-20T23:57:38.790Z,29.17
